Map

Track Data

SID SEASON NUMBER BASIN SUBBASIN NAME ISO_TIME NATURE LAT LON WMO_WIND WMO_PRES WMO_AGENCY TRACK_TYPE DIST2LAND LANDFALL IFLAG USA_AGENCY USA_ATCF_ID USA_LAT USA_LON USA_RECORD USA_STATUS USA_WIND USA_PRES USA_SSHS USA_R34_NE USA_R34_SE USA_R34_SW USA_R34_NW USA_R50_NE USA_R50_SE USA_R50_SW USA_R50_NW USA_R64_NE USA_R64_SE USA_R64_SW USA_R64_NW USA_POCI USA_ROCI USA_RMW USA_EYE TOKYO_LAT TOKYO_LON TOKYO_GRADE TOKYO_WIND TOKYO_PRES TOKYO_R50_DIR TOKYO_R50_LONG TOKYO_R50_SHORT TOKYO_R30_DIR TOKYO_R30_LONG TOKYO_R30_SHORT TOKYO_LAND CMA_LAT CMA_LON CMA_CAT CMA_WIND CMA_PRES HKO_LAT HKO_LON HKO_CAT HKO_WIND HKO_PRES NEWDELHI_LAT NEWDELHI_LON NEWDELHI_GRADE NEWDELHI_WIND NEWDELHI_PRES NEWDELHI_CI NEWDELHI_DP NEWDELHI_POCI REUNION_LAT REUNION_LON REUNION_TYPE REUNION_WIND REUNION_PRES REUNION_TNUM REUNION_CI REUNION_RMW REUNION_R34_NE REUNION_R34_SE REUNION_R34_SW REUNION_R34_NW REUNION_R50_NE REUNION_R50_SE REUNION_R50_SW REUNION_R50_NW REUNION_R64_NE REUNION_R64_SE REUNION_R64_SW REUNION_R64_NW BOM_LAT BOM_LON BOM_TYPE BOM_WIND BOM_PRES BOM_TNUM BOM_CI BOM_RMW BOM_R34_NE BOM_R34_SE BOM_R34_SW BOM_R34_NW BOM_R50_NE BOM_R50_SE BOM_R50_SW BOM_R50_NW BOM_R64_NE BOM_R64_SE BOM_R64_SW BOM_R64_NW BOM_ROCI BOM_POCI BOM_EYE BOM_POS_METHOD BOM_PRES_METHOD NADI_LAT NADI_LON NADI_CAT NADI_WIND NADI_PRES WELLINGTON_LAT WELLINGTON_LON WELLINGTON_WIND WELLINGTON_PRES DS824_LAT DS824_LON DS824_STAGE DS824_WIND DS824_PRES TD9636_LAT TD9636_LON TD9636_STAGE TD9636_WIND TD9636_PRES TD9635_LAT TD9635_LON TD9635_WIND TD9635_PRES TD9635_ROCI NEUMANN_LAT NEUMANN_LON NEUMANN_CLASS NEUMANN_WIND NEUMANN_PRES MLC_LAT MLC_LON MLC_CLASS MLC_WIND MLC_PRES USA_GUST BOM_GUST BOM_GUST_PER REUNION_GUST REUNION_GUST_PER USA_SEAHGT USA_SEARAD_NE USA_SEARAD_SE USA_SEARAD_SW USA_SEARAD_NW STORM_SPEED STORM_DIR
1935042S18120 1935 8 SI WA NOT_NAMED 1935-02-10 23:00:00 NR -18.0000 119.800 main 211 202 __________O___ -1 -18.0000 119.800 7 8 228
1935042S18120 1935 8 SI WA NOT_NAMED 1935-02-11 00:00:00 NR -18.0836 119.701 main 207 207 __________P___ -1 -18.0836 119.701 7 27 295
1935042S18120 1935 8 SI WA NOT_NAMED 1935-02-11 01:00:00 NR -17.6254 118.951 bom main 279 279 ______O___P___ -1 -16.0000 117.000 -18.1672 119.601 7 22 292
1935042S18120 1935 8 SI WA NOT_NAMED 1935-02-11 03:00:00 NR -17.6646 118.617 main 273 267 ______P___P___ -1 -16.3254 117.048 -18.3342 119.402 7 8 253
1935042S18120 1935 8 SI WA NOT_NAMED 1935-02-11 06:00:00 NR -17.8247 118.252 main 270 257 ______P___P___ -1 -16.8119 117.119 -18.5843 119.102 7 7 236
1935042S18120 1935 8 SI WA NOT_NAMED 1935-02-11 09:00:00 NR -18.0641 117.995 main 251 235 ______P___P___ -1 -17.2944 117.190 -18.8339 118.801 7 7 213
1935042S18120 1935 8 SI WA NOT_NAMED 1935-02-11 11:00:00 NR -18.3063 117.918 main 235 224 ______P___O___ -1 -17.6126 117.235 -19.0000 118.600 7 8 199
1935042S18120 1935 8 SI WA NOT_NAMED 1935-02-11 12:00:00 NR -18.4230 117.862 main 224 183 ______P___P___ -1 -17.7705 117.257 -19.0755 118.467 7 8 204
1935042S18120 1935 8 SI WA NOT_NAMED 1935-02-11 15:00:00 NR -18.7696 117.695 main 183 165 ______P___P___ -1 -18.2376 117.322 -19.3015 118.069 7 7 208
1935042S18120 1935 8 SI WA NOT_NAMED 1935-02-11 18:00:00 NR -19.0506 117.505 main 158 143 ______P___P___ -1 -18.6935 117.382 -19.5267 117.669 7 6 208
1935042S18120 1935 8 SI WA NOT_NAMED 1935-02-11 21:00:00 NR -19.3408 117.381 main 143 123 ______P___P___ -1 -19.1357 117.437 -19.7510 117.268 7 6 194
1935042S18120 1935 8 SI WA NOT_NAMED 1935-02-11 23:00:00 NR -19.5174 117.376 main 123 118 ______P___O___ -1 -19.4218 117.470 -19.9000 117.000 7 5 157
1935042S18120 1935 8 SI WA NOT_NAMED 1935-02-12 00:00:00 NR -19.5619 117.485 main 108 98 ______P_______ -1 -19.5619 117.485 7 7 147
1935042S18120 1935 8 SI WA NOT_NAMED 1935-02-12 01:00:00 NR -19.7000 117.500 bom main 98 79 ______O_______ -1 -19.7000 117.500 7 8 173
1935042S18120 1935 8 SI WA NOT_NAMED 1935-02-12 03:00:00 NR -19.9704 117.528 main 69 38 ______P_______ -1 -19.9704 117.528 7 8 174
1935042S18120 1935 8 SI WA NOT_NAMED 1935-02-12 06:00:00 NR -20.3679 117.578 main 33 30 ______P_______ -1 -20.3679 117.578 7 8 173
1935042S18120 1935 8 SI WA NOT_NAMED 1935-02-12 07:00:00 NR -20.5000 117.600 bom main 30 10 ______O_______ -1 -20.5000 117.600 7 8 169
1935042S18120 1935 8 SI WA NOT_NAMED 1935-02-12 09:00:00 NR -20.7655 117.657 main 0 0 ______P_______ -1 -20.7655 117.657 7 8 167
1935042S18120 1935 8 SI WA NOT_NAMED 1935-02-12 12:00:00 NR -21.1662 117.762 main 0 0 ______P_______ -1 -21.1662 117.762 8 166
1935042S18120 1935 8 SI WA NOT_NAMED 1935-02-12 13:00:00 NR -21.3000 117.800 bom main 0 ______O_______ -1 -21.3000 117.800 8 168

About IBTrACS Database

This database is a web-friendly format of International Best Track Archive for Climate Stewardship (IBTrACS), a global best track data archive curated by NOAA dating back to 1842.

Updated: 2021-10-21